sensor_id;sensor_type;location;lat;lon;timestamp;pressure;altitude;pressure_sealevel;temperature;humidity
54808;BME280;40708;50.364;7.550;2023-05-24T00:00:52;101344.22;;;9.33;100.00
54808;BME280;40708;50.364;7.550;2023-05-24T00:03:20;101358.22;;;9.26;100.00
54808;BME280;40708;50.364;7.550;2023-05-24T00:05:45;101358.84;;;9.14;100.00
54808;BME280;40708;50.364;7.550;2023-05-24T00:08:11;101366.03;;;9.18;100.00
54808;BME280;40708;50.364;7.550;2023-05-24T00:10:36;101365.06;;;9.16;100.00
54808;BME280;40708;50.364;7.550;2023-05-24T00:13:01;101367.09;;;9.28;100.00
54808;BME280;40708;50.364;7.550;2023-05-24T00:15:27;101367.06;;;9.26;100.00
54808;BME280;40708;50.364;7.550;2023-05-24T00:17:52;101356.47;;;9.26;100.00
54808;BME280;40708;50.364;7.550;2023-05-24T00:20:17;101352.94;;;9.26;100.00
54808;BME280;40708;50.364;7.550;2023-05-24T00:22:44;101344.28;;;9.34;100.00
54808;BME280;40708;50.364;7.550;2023-05-24T00:25:10;101326.84;;;9.45;100.00
54808;BME280;40708;50.364;7.550;2023-05-24T00:27:35;101313.75;;;9.54;100.00
54808;BME280;40708;50.364;7.550;2023-05-24T00:30:02;101313.72;;;9.53;100.00
54808;BME280;40708;50.364;7.550;2023-05-24T00:32:27;101311.84;;;9.47;100.00
54808;BME280;40708;50.364;7.550;2023-05-24T00:34:52;101317.16;;;9.47;100.00
54808;BME280;40708;50.364;7.550;2023-05-24T00:37:18;101312.75;;;9.48;100.00
54808;BME280;40708;50.364;7.550;2023-05-24T00:39:43;101317.94;;;9.43;100.00
54808;BME280;40708;50.364;7.550;2023-05-24T00:42:08;101303.91;;;9.47;100.00
54808;BME280;40708;50.364;7.550;2023-05-24T00:44:33;101301.19;;;9.44;100.00
54808;BME280;40708;50.364;7.550;2023-05-24T00:46:59;101311.69;;;9.38;100.00
54808;BME280;40708;50.364;7.550;2023-05-24T00:49:24;101306.38;;;9.37;100.00
54808;BME280;40708;50.364;7.550;2023-05-24T00:51:51;101298.44;;;9.38;100.00
54808;BME280;40708;50.364;7.550;2023-05-24T00:54:17;101301.84;;;9.31;100.00
54808;BME280;40708;50.364;7.550;2023-05-24T00:56:42;101314.97;;;9.25;100.00
54808;BME280;40708;50.364;7.550;2023-05-24T00:59:08;101327.09;;;9.14;100.00
54808;BME280;40708;50.364;7.550;2023-05-24T01:01:33;101328.00;;;9.15;100.00
54808;BME280;40708;50.364;7.550;2023-05-24T01:03:59;101327.72;;;9.03;100.00
54808;BME280;40708;50.364;7.550;2023-05-24T01:06:25;101331.25;;;9.02;100.00
54808;BME280;40708;50.364;7.550;2023-05-24T01:12:03;101338.03;;;8.89;100.00
54808;BME280;40708;50.364;7.550;2023-05-24T01:17:20;101357.16;;;8.76;100.00
54808;BME280;40708;50.364;7.550;2023-05-24T01:19:53;101355.31;;;8.72;100.00
54808;BME280;40708;50.364;7.550;2023-05-24T01:25:26;101362.28;;;8.70;100.00
54808;BME280;40708;50.364;7.550;2023-05-24T01:27:58;101354.25;;;8.64;100.00
54808;BME280;40708;50.364;7.550;2023-05-24T01:30:26;101365.66;;;8.63;100.00
54808;BME280;40708;50.364;7.550;2023-05-24T01:32:52;101359.28;;;8.53;100.00
54808;BME280;40708;50.364;7.550;2023-05-24T01:35:18;101367.22;;;8.53;100.00
54808;BME280;40708;50.364;7.550;2023-05-24T01:37:43;101361.97;;;8.55;100.00
54808;BME280;40708;50.364;7.550;2023-05-24T01:40:09;101356.66;;;8.53;100.00
54808;BME280;40708;50.364;7.550;2023-05-24T01:42:43;101362.63;;;8.45;100.00
54808;BME280;40708;50.364;7.550;2023-05-24T01:45:33;101367.16;;;8.52;100.00
54808;BME280;40708;50.364;7.550;2023-05-24T01:48:20;101361.66;;;8.43;100.00
54808;BME280;40708;50.364;7.550;2023-05-24T01:50:52;101370.63;;;8.48;100.00
54808;BME280;40708;50.364;7.550;2023-05-24T01:53:19;101358.50;;;8.57;100.00
54808;BME280;40708;50.364;7.550;2023-05-24T01:55:48;101354.16;;;8.61;100.00
54808;BME280;40708;50.364;7.550;2023-05-24T01:58:15;101348.88;;;8.61;100.00
54808;BME280;40708;50.364;7.550;2023-05-24T02:00:44;101345.25;;;8.56;100.00
54808;BME280;40708;50.364;7.550;2023-05-24T02:03:09;101343.47;;;8.56;100.00
54808;BME280;40708;50.364;7.550;2023-05-24T02:05:37;101348.63;;;8.50;100.00
54808;BME280;40708;50.364;7.550;2023-05-24T02:08:03;101351.97;;;8.42;100.00
54808;BME280;40708;50.364;7.550;2023-05-24T02:10:28;101359.59;;;8.29;100.00
54808;BME280;40708;50.364;7.550;2023-05-24T02:12:53;101379.63;;;8.21;100.00
54808;BME280;40708;50.364;7.550;2023-05-24T02:15:18;101402.25;;;8.10;100.00
54808;BME280;40708;50.364;7.550;2023-05-24T02:17:44;101414.44;;;8.04;100.00
54808;BME280;40708;50.364;7.550;2023-05-24T02:20:10;101427.44;;;7.96;100.00
54808;BME280;40708;50.364;7.550;2023-05-24T02:22:37;101440.44;;;7.89;100.00
54808;BME280;40708;50.364;7.550;2023-05-24T02:25:03;101456.91;;;7.80;100.00
54808;BME280;40708;50.364;7.550;2023-05-24T02:27:28;101457.72;;;7.77;100.00
54808;BME280;40708;50.364;7.550;2023-05-24T02:29:53;101466.22;;;7.66;100.00
54808;BME280;40708;50.364;7.550;2023-05-24T02:32:19;101473.44;;;7.71;100.00
54808;BME280;40708;50.364;7.550;2023-05-24T02:34:44;101482.91;;;7.63;100.00
54808;BME280;40708;50.364;7.550;2023-05-24T02:37:09;101480.97;;;7.58;100.00
54808;BME280;40708;50.364;7.550;2023-05-24T02:39:38;101483.47;;;7.53;100.00
54808;BME280;40708;50.364;7.550;2023-05-24T02:42:03;101480.69;;;7.49;100.00
54808;BME280;40708;50.364;7.550;2023-05-24T02:44:29;101491.94;;;7.42;100.00
54808;BME280;40708;50.364;7.550;2023-05-24T02:46:55;101482.25;;;7.42;100.00
54808;BME280;40708;50.364;7.550;2023-05-24T02:49:20;101491.78;;;7.37;100.00
54808;BME280;40708;50.364;7.550;2023-05-24T02:51:45;101494.19;;;7.30;100.00
54808;BME280;40708;50.364;7.550;2023-05-24T02:54:11;101505.47;;;7.24;100.00
54808;BME280;40708;50.364;7.550;2023-05-24T02:56:36;101508.69;;;7.14;100.00
54808;BME280;40708;50.364;7.550;2023-05-24T02:59:03;101520.84;;;7.09;100.00
54808;BME280;40708;50.364;7.550;2023-05-24T03:01:29;101535.59;;;7.04;100.00
54808;BME280;40708;50.364;7.550;2023-05-24T03:03:54;101544.31;;;7.01;100.00
54808;BME280;40708;50.364;7.550;2023-05-24T03:06:19;101542.31;;;6.93;100.00
54808;BME280;40708;50.364;7.550;2023-05-24T03:08:45;101553.59;;;6.89;100.00
54808;BME280;40708;50.364;7.550;2023-05-24T03:11:11;101563.09;;;6.84;100.00
54808;BME280;40708;50.364;7.550;2023-05-24T03:13:36;101569.00;;;6.77;100.00
54808;BME280;40708;50.364;7.550;2023-05-24T03:16:02;101580.34;;;6.74;100.00
54808;BME280;40708;50.364;7.550;2023-05-24T03:18:27;101589.00;;;6.70;100.00
54808;BME280;40708;50.364;7.550;2023-05-24T03:20:52;101597.75;;;6.69;100.00
54808;BME280;40708;50.364;7.550;2023-05-24T03:23:18;101598.63;;;6.68;100.00
54808;BME280;40708;50.364;7.550;2023-05-24T03:25:43;101606.56;;;6.70;100.00
54808;BME280;40708;50.364;7.550;2023-05-24T03:28:08;101612.63;;;6.67;100.00
54808;BME280;40708;50.364;7.550;2023-05-24T03:30:34;101626.56;;;6.63;100.00
54808;BME280;40708;50.364;7.550;2023-05-24T03:32:59;101630.78;;;6.58;100.00
54808;BME280;40708;50.364;7.550;2023-05-24T03:35:25;101640.25;;;6.53;100.00
54808;BME280;40708;50.364;7.550;2023-05-24T03:37:51;101648.81;;;6.46;100.00
54808;BME280;40708;50.364;7.550;2023-05-24T03:40:17;101659.38;;;6.47;100.00
54808;BME280;40708;50.364;7.550;2023-05-24T03:42:42;101682.28;;;6.48;100.00
54808;BME280;40708;50.364;7.550;2023-05-24T03:45:08;101684.97;;;6.50;100.00
54808;BME280;40708;50.364;7.550;2023-05-24T03:47:33;101698.47;;;6.57;100.00
54808;BME280;40708;50.364;7.550;2023-05-24T03:49:59;101701.50;;;6.70;100.00
54808;BME280;40708;50.364;7.550;2023-05-24T03:52:24;101702.94;;;6.85;100.00
54808;BME280;40708;50.364;7.550;2023-05-24T03:54:50;101690.31;;;7.00;100.00
54808;BME280;40708;50.364;7.550;2023-05-24T03:57:16;101685.53;;;7.15;100.00
54808;BME280;40708;50.364;7.550;2023-05-24T03:59:41;101675.66;;;7.35;100.00
54808;BME280;40708;50.364;7.550;2023-05-24T04:02:06;101656.59;;;7.45;100.00
54808;BME280;40708;50.364;7.550;2023-05-24T04:04:32;101633.47;;;7.65;100.00
54808;BME280;40708;50.364;7.550;2023-05-24T04:06:57;101616.50;;;7.85;100.00
54808;BME280;40708;50.364;7.550;2023-05-24T04:09:22;101585.19;;;7.99;100.00
54808;BME280;40708;50.364;7.550;2023-05-24T04:11:48;101565.91;;;8.32;100.00
54808;BME280;40708;50.364;7.550;2023-05-24T04:14:13;101530.13;;;8.45;100.00
54808;BME280;40708;50.364;7.550;2023-05-24T04:16:38;101488.19;;;8.62;100.00
54808;BME280;40708;50.364;7.550;2023-05-24T04:19:06;101457.09;;;8.87;100.00
54808;BME280;40708;50.364;7.550;2023-05-24T04:21:32;101434.94;;;9.21;100.00
54808;BME280;40708;50.364;7.550;2023-05-24T04:23:58;101411.63;;;9.48;100.00
54808;BME280;40708;50.364;7.550;2023-05-24T04:26:25;101390.81;;;9.67;100.00
54808;BME280;40708;50.364;7.550;2023-05-24T04:28:51;101348.50;;;9.71;100.00
54808;BME280;40708;50.364;7.550;2023-05-24T04:31:17;101334.13;;;10.08;100.00
54808;BME280;40708;50.364;7.550;2023-05-24T04:33:42;101307.03;;;10.26;100.00
54808;BME280;40708;50.364;7.550;2023-05-24T04:36:07;101287.16;;;10.58;100.00
54808;BME280;40708;50.364;7.550;2023-05-24T04:38:35;101267.31;;;10.95;100.00
54808;BME280;40708;50.364;7.550;2023-05-24T04:41:03;101255.03;;;11.03;100.00
54808;BME280;40708;50.364;7.550;2023-05-24T04:43:28;101236.00;;;11.46;100.00
54808;BME280;40708;50.364;7.550;2023-05-24T04:45:54;101210.78;;;12.01;100.00
54808;BME280;40708;50.364;7.550;2023-05-24T04:48:23;101211.84;;;12.32;100.00
54808;BME280;40708;50.364;7.550;2023-05-24T04:50:53;101202.34;;;12.97;100.00
54808;BME280;40708;50.364;7.550;2023-05-24T04:53:19;101181.88;;;12.83;100.00
54808;BME280;40708;50.364;7.550;2023-05-24T04:55:45;101177.53;;;13.10;100.00
54808;BME280;40708;50.364;7.550;2023-05-24T04:58:10;101150.03;;;13.63;100.00
54808;BME280;40708;50.364;7.550;2023-05-24T05:00:35;101140.22;;;13.72;100.00
54808;BME280;40708;50.364;7.550;2023-05-24T05:03:00;101143.81;;;13.61;100.00
54808;BME280;40708;50.364;7.550;2023-05-24T05:05:26;101141.06;;;14.09;100.00
54808;BME280;40708;50.364;7.550;2023-05-24T05:07:51;101140.13;;;14.38;100.00
54808;BME280;40708;50.364;7.550;2023-05-24T05:10:16;101141.03;;;14.32;100.00
54808;BME280;40708;50.364;7.550;2023-05-24T05:12:42;101153.56;;;13.68;100.00
54808;BME280;40708;50.364;7.550;2023-05-24T05:15:07;101158.03;;;13.69;100.00
54808;BME280;40708;50.364;7.550;2023-05-24T05:17:33;101157.13;;;13.67;100.00
54808;BME280;40708;50.364;7.550;2023-05-24T05:19:58;101152.28;;;14.92;100.00
54808;BME280;40708;50.364;7.550;2023-05-24T05:22:24;101159.72;;;14.32;100.00
54808;BME280;40708;50.364;7.550;2023-05-24T05:24:50;101152.53;;;14.31;100.00
54808;BME280;40708;50.364;7.550;2023-05-24T05:27:16;101145.22;;;14.80;100.00
54808;BME280;40708;50.364;7.550;2023-05-24T05:29:41;101147.03;;;14.76;100.00
54808;BME280;40708;50.364;7.550;2023-05-24T05:32:06;101143.53;;;14.65;100.00
54808;BME280;40708;50.364;7.550;2023-05-24T05:34:31;101150.72;;;14.56;100.00
54808;BME280;40708;50.364;7.550;2023-05-24T05:36:57;101141.41;;;15.22;100.00
54808;BME280;40708;50.364;7.550;2023-05-24T05:39:22;101140.72;;;16.00;100.00
54808;BME280;40708;50.364;7.550;2023-05-24T05:41:47;101137.56;;;15.55;100.00
54808;BME280;40708;50.364;7.550;2023-05-24T05:44:13;101137.78;;;15.26;100.00
54808;BME280;40708;50.364;7.550;2023-05-24T05:46:38;101157.81;;;14.57;100.00
54808;BME280;40708;50.364;7.550;2023-05-24T05:49:05;101155.81;;;15.00;100.00
54808;BME280;40708;50.364;7.550;2023-05-24T05:51:30;101162.22;;;14.67;100.00
54808;BME280;40708;50.364;7.550;2023-05-24T05:53:56;101172.09;;;14.47;100.00
54808;BME280;40708;50.364;7.550;2023-05-24T05:56:21;101174.69;;;14.69;100.00
54808;BME280;40708;50.364;7.550;2023-05-24T05:58:46;101166.31;;;15.27;100.00
54808;BME280;40708;50.364;7.550;2023-05-24T06:01:12;101164.44;;;15.39;100.00
54808;BME280;40708;50.364;7.550;2023-05-24T06:03:37;101161.94;;;15.15;100.00
54808;BME280;40708;50.364;7.550;2023-05-24T06:06:02;101163.81;;;15.03;100.00
54808;BME280;40708;50.364;7.550;2023-05-24T06:08:27;101165.47;;;15.20;100.00
54808;BME280;40708;50.364;7.550;2023-05-24T06:10:55;101157.28;;;15.38;100.00
54808;BME280;40708;50.364;7.550;2023-05-24T06:13:20;101159.03;;;15.47;100.00
54808;BME280;40708;50.364;7.550;2023-05-24T06:15:45;101151.03;;;15.42;100.00
54808;BME280;40708;50.364;7.550;2023-05-24T06:18:10;101148.66;;;16.08;100.00
54808;BME280;40708;50.364;7.550;2023-05-24T06:20:37;101157.16;;;15.61;100.00
54808;BME280;40708;50.364;7.550;2023-05-24T06:23:02;101163.91;;;14.86;100.00
54808;BME280;40708;50.364;7.550;2023-05-24T06:25:28;101155.47;;;15.46;100.00
54808;BME280;40708;50.364;7.550;2023-05-24T06:27:55;101161.75;;;15.39;100.00
54808;BME280;40708;50.364;7.550;2023-05-24T06:30:20;101147.38;;;15.56;100.00
54808;BME280;40708;50.364;7.550;2023-05-24T06:32:45;101148.09;;;15.74;100.00
54808;BME280;40708;50.364;7.550;2023-05-24T06:35:11;101147.50;;;16.30;100.00
54808;BME280;40708;50.364;7.550;2023-05-24T06:37:36;101153.63;;;16.41;100.00
54808;BME280;40708;50.364;7.550;2023-05-24T06:40:03;101140.88;;;16.63;100.00
54808;BME280;40708;50.364;7.550;2023-05-24T06:42:30;101123.41;;;17.52;100.00
54808;BME280;40708;50.364;7.550;2023-05-24T06:44:55;101114.47;;;17.53;100.00
54808;BME280;40708;50.364;7.550;2023-05-24T06:47:21;101125.13;;;17.01;100.00
54808;BME280;40708;50.364;7.550;2023-05-24T06:49:46;101118.19;;;16.88;100.00
54808;BME280;40708;50.364;7.550;2023-05-24T06:52:12;101114.22;;;17.13;100.00
54808;BME280;40708;50.364;7.550;2023-05-24T06:54:37;101120.94;;;16.14;100.00
54808;BME280;40708;50.364;7.550;2023-05-24T06:57:03;101126.16;;;16.24;100.00
54808;BME280;40708;50.364;7.550;2023-05-24T06:59:29;101120.34;;;16.62;100.00
54808;BME280;40708;50.364;7.550;2023-05-24T07:01:54;101129.56;;;16.37;100.00
54808;BME280;40708;50.364;7.550;2023-05-24T07:04:23;101121.81;;;16.13;100.00
54808;BME280;40708;50.364;7.550;2023-05-24T07:06:49;101121.88;;;15.09;100.00
54808;BME280;40708;50.364;7.550;2023-05-24T07:09:14;101120.22;;;15.96;100.00
54808;BME280;40708;50.364;7.550;2023-05-24T07:11:40;101127.88;;;15.38;100.00
54808;BME280;40708;50.364;7.550;2023-05-24T07:14:05;101129.53;;;16.41;100.00
54808;BME280;40708;50.364;7.550;2023-05-24T07:16:30;101156.84;;;15.91;100.00
54808;BME280;40708;50.364;7.550;2023-05-24T07:18:55;101155.44;;;16.38;100.00
54808;BME280;40708;50.364;7.550;2023-05-24T07:21:22;101160.75;;;16.42;100.00
54808;BME280;40708;50.364;7.550;2023-05-24T07:23:50;101159.81;;;16.45;100.00
54808;BME280;40708;50.364;7.550;2023-05-24T07:26:15;101156.31;;;17.08;100.00
54808;BME280;40708;50.364;7.550;2023-05-24T07:28:41;101158.69;;;16.67;100.00
54808;BME280;40708;50.364;7.550;2023-05-24T07:31:08;101153.28;;;17.30;100.00
54808;BME280;40708;50.364;7.550;2023-05-24T07:33:35;101145.56;;;18.14;100.00
54808;BME280;40708;50.364;7.550;2023-05-24T07:36:00;101162.41;;;17.18;100.00
54808;BME280;40708;50.364;7.550;2023-05-24T07:38:26;101156.59;;;17.45;100.00
54808;BME280;40708;50.364;7.550;2023-05-24T07:40:53;101166.09;;;17.11;100.00
54808;BME280;40708;50.364;7.550;2023-05-24T07:43:18;101169.78;;;17.02;100.00
54808;BME280;40708;50.364;7.550;2023-05-24T07:45:44;101159.00;;;17.07;100.00
54808;BME280;40708;50.364;7.550;2023-05-24T07:48:09;101150.53;;;17.34;100.00
54808;BME280;40708;50.364;7.550;2023-05-24T07:50:34;101147.72;;;17.95;99.27
54808;BME280;40708;50.364;7.550;2023-05-24T07:53:00;101158.47;;;17.40;100.00
54808;BME280;40708;50.364;7.550;2023-05-24T07:55:25;101168.38;;;16.74;100.00
54808;BME280;40708;50.364;7.550;2023-05-24T07:57:51;101171.81;;;16.09;100.00
54808;BME280;40708;50.364;7.550;2023-05-24T08:00:17;101174.63;;;16.00;100.00
54808;BME280;40708;50.364;7.550;2023-05-24T08:02:44;101176.81;;;15.53;100.00
54808;BME280;40708;50.364;7.550;2023-05-24T08:05:11;101177.72;;;15.53;100.00
54808;BME280;40708;50.364;7.550;2023-05-24T08:07:37;101170.53;;;15.60;100.00
54808;BME280;40708;50.364;7.550;2023-05-24T08:10:03;101166.41;;;15.13;100.00
54808;BME280;40708;50.364;7.550;2023-05-24T08:12:28;101180.91;;;14.68;100.00
54808;BME280;40708;50.364;7.550;2023-05-24T08:14:55;101177.09;;;15.09;100.00
54808;BME280;40708;50.364;7.550;2023-05-24T08:17:20;101187.19;;;14.52;100.00
54808;BME280;40708;50.364;7.550;2023-05-24T08:19:46;101188.16;;;14.33;100.00
54808;BME280;40708;50.364;7.550;2023-05-24T08:22:11;101194.44;;;13.94;100.00
54808;BME280;40708;50.364;7.550;2023-05-24T08:24:36;101195.28;;;14.17;100.00
54808;BME280;40708;50.364;7.550;2023-05-24T08:27:02;101202.44;;;13.97;100.00
54808;BME280;40708;50.364;7.550;2023-05-24T08:29:28;101200.63;;;14.02;100.00
54808;BME280;40708;50.364;7.550;2023-05-24T08:31:53;101199.78;;;13.87;100.00
54808;BME280;40708;50.364;7.550;2023-05-24T08:34:19;101201.56;;;14.07;100.00
54808;BME280;40708;50.364;7.550;2023-05-24T08:36:44;101207.72;;;14.29;100.00
54808;BME280;40708;50.364;7.550;2023-05-24T08:39:10;101209.53;;;14.09;100.00
54808;BME280;40708;50.364;7.550;2023-05-24T08:41:35;101206.88;;;14.12;100.00
54808;BME280;40708;50.364;7.550;2023-05-24T08:44:06;101206.88;;;14.03;100.00
54808;BME280;40708;50.364;7.550;2023-05-24T08:46:33;101209.44;;;14.59;100.00
54808;BME280;40708;50.364;7.550;2023-05-24T08:48:59;101202.00;;;15.17;100.00
54808;BME280;40708;50.364;7.550;2023-05-24T08:51:25;101191.56;;;15.99;100.00
54808;BME280;40708;50.364;7.550;2023-05-24T08:53:51;101189.72;;;16.04;100.00
54808;BME280;40708;50.364;7.550;2023-05-24T08:56:18;101183.94;;;15.57;100.00
54808;BME280;40708;50.364;7.550;2023-05-24T08:58:44;101178.13;;;14.91;100.00
54808;BME280;40708;50.364;7.550;2023-05-24T09:01:13;101170.50;;;15.64;100.00
54808;BME280;40708;50.364;7.550;2023-05-24T09:03:40;101163.31;;;16.53;100.00
54808;BME280;40708;50.364;7.550;2023-05-24T09:06:08;101151.97;;;17.56;100.00
54808;BME280;40708;50.364;7.550;2023-05-24T09:08:35;101145.28;;;17.81;89.81
54808;BME280;40708;50.364;7.550;2023-05-24T09:11:04;101147.13;;;18.25;86.25
54808;BME280;40708;50.364;7.550;2023-05-24T09:13:30;101150.84;;;17.71;88.93
54808;BME280;40708;50.364;7.550;2023-05-24T09:15:57;101155.41;;;17.64;85.75
54808;BME280;40708;50.364;7.550;2023-05-24T09:18:23;101150.75;;;17.75;88.15
54808;BME280;40708;50.364;7.550;2023-05-24T09:20:48;101141.19;;;18.08;87.05
54808;BME280;40708;50.364;7.550;2023-05-24T09:23:14;101143.94;;;18.51;81.90
54808;BME280;40708;50.364;7.550;2023-05-24T09:25:43;101148.59;;;17.96;79.86
54808;BME280;40708;50.364;7.550;2023-05-24T09:28:11;101131.47;;;17.55;83.21
54808;BME280;40708;50.364;7.550;2023-05-24T09:30:37;101137.06;;;17.91;82.25
54808;BME280;40708;50.364;7.550;2023-05-24T09:33:06;101123.41;;;18.03;82.16
54808;BME280;40708;50.364;7.550;2023-05-24T09:35:32;101117.81;;;17.67;84.88
54808;BME280;40708;50.364;7.550;2023-05-24T09:37:58;101115.47;;;17.97;85.04
54808;BME280;40708;50.364;7.550;2023-05-24T09:40:26;101115.81;;;17.80;88.90
54808;BME280;40708;50.364;7.550;2023-05-24T09:43:02;101110.59;;;17.69;86.56
54808;BME280;40708;50.364;7.550;2023-05-24T09:45:28;101111.44;;;18.20;88.53
54808;BME280;40708;50.364;7.550;2023-05-24T09:47:53;101109.53;;;18.24;84.17
54808;BME280;40708;50.364;7.550;2023-05-24T09:50:18;101103.59;;;18.10;81.47
54808;BME280;40708;50.364;7.550;2023-05-24T09:52:44;101109.81;;;18.12;78.93
54808;BME280;40708;50.364;7.550;2023-05-24T09:55:14;101111.81;;;17.99;79.70
54808;BME280;40708;50.364;7.550;2023-05-24T09:57:40;101105.91;;;17.30;90.20
54808;BME280;40708;50.364;7.550;2023-05-24T10:00:09;101113.63;;;16.95;91.57
54808;BME280;40708;50.364;7.550;2023-05-24T10:02:42;101093.16;;;17.44;89.70
54808;BME280;40708;50.364;7.550;2023-05-24T10:05:12;101102.59;;;17.14;89.57
54808;BME280;40708;50.364;7.550;2023-05-24T10:07:39;101112.13;;;17.34;95.02
54808;BME280;40708;50.364;7.550;2023-05-24T10:10:05;101112.59;;;17.03;96.09
54808;BME280;40708;50.364;7.550;2023-05-24T10:12:33;101102.78;;;17.04;99.70
54808;BME280;40708;50.364;7.550;2023-05-24T10:15:00;101108.59;;;17.28;96.72
54808;BME280;40708;50.364;7.550;2023-05-24T10:17:25;101103.44;;;17.16;93.64
54808;BME280;40708;50.364;7.550;2023-05-24T10:19:52;101103.38;;;17.21;92.21
54808;BME280;40708;50.364;7.550;2023-05-24T10:22:19;101096.78;;;17.40;94.67
54808;BME280;40708;50.364;7.550;2023-05-24T10:24:49;101086.06;;;17.91;89.66
54808;BME280;40708;50.364;7.550;2023-05-24T10:27:22;101095.03;;;17.38;93.68
54808;BME280;40708;50.364;7.550;2023-05-24T10:32:50;101073.28;;;18.48;81.40
54808;BME280;40708;50.364;7.550;2023-05-24T10:35:18;101085.03;;;17.98;81.92
54808;BME280;40708;50.364;7.550;2023-05-24T10:37:45;101076.28;;;17.88;80.97
54808;BME280;40708;50.364;7.550;2023-05-24T10:40:18;101079.56;;;18.02;80.10
54808;BME280;40708;50.364;7.550;2023-05-24T10:42:49;101073.06;;;18.14;80.16
54808;BME280;40708;50.364;7.550;2023-05-24T10:47:47;101077.28;;;17.81;86.19
54808;BME280;40708;50.364;7.550;2023-05-24T10:50:16;101076.50;;;17.76;81.54
54808;BME280;40708;50.364;7.550;2023-05-24T10:52:42;101078.66;;;17.56;85.66
54808;BME280;40708;50.364;7.550;2023-05-24T10:55:08;101066.06;;;18.07;84.03
54808;BME280;40708;50.364;7.550;2023-05-24T10:57:35;101075.97;;;18.03;86.13
54808;BME280;40708;50.364;7.550;2023-05-24T11:02:48;101069.50;;;17.67;91.41
54808;BME280;40708;50.364;7.550;2023-05-24T11:05:13;101073.22;;;17.60;91.03
54808;BME280;40708;50.364;7.550;2023-05-24T11:07:43;101076.13;;;17.45;90.01
54808;BME280;40708;50.364;7.550;2023-05-24T11:10:12;101068.00;;;16.98;99.97
54808;BME280;40708;50.364;7.550;2023-05-24T11:12:39;101079.97;;;16.76;100.00
54808;BME280;40708;50.364;7.550;2023-05-24T11:15:07;101066.81;;;17.15;98.66
54808;BME280;40708;50.364;7.550;2023-05-24T11:20:33;101073.44;;;17.47;82.51
54808;BME280;40708;50.364;7.550;2023-05-24T11:22:58;101073.25;;;17.05;88.29
54808;BME280;40708;50.364;7.550;2023-05-24T11:25:25;101076.78;;;17.09;91.81
54808;BME280;40708;50.364;7.550;2023-05-24T11:27:51;101086.56;;;16.47;100.00
54808;BME280;40708;50.364;7.550;2023-05-24T11:30:17;101081.88;;;16.67;100.00
54808;BME280;40708;50.364;7.550;2023-05-24T11:32:46;101074.91;;;16.51;100.00
54808;BME280;40708;50.364;7.550;2023-05-24T11:35:12;101074.00;;;16.52;100.00
54808;BME280;40708;50.364;7.550;2023-05-24T11:37:38;101082.19;;;16.43;100.00
54808;BME280;40708;50.364;7.550;2023-05-24T11:40:05;101077.53;;;16.59;100.00
54808;BME280;40708;50.364;7.550;2023-05-24T11:42:34;101068.63;;;16.55;100.00
54808;BME280;40708;50.364;7.550;2023-05-24T11:45:02;101063.59;;;16.94;100.00
54808;BME280;40708;50.364;7.550;2023-05-24T11:47:27;101066.03;;;17.09;100.00
54808;BME280;40708;50.364;7.550;2023-05-24T11:49:52;101056.78;;;17.28;95.52
54808;BME280;40708;50.364;7.550;2023-05-24T11:52:17;101072.44;;;17.00;96.53
54808;BME280;40708;50.364;7.550;2023-05-24T11:54:43;101067.91;;;17.04;90.50
54808;BME280;40708;50.364;7.550;2023-05-24T11:57:11;101062.00;;;16.81;98.21
54808;BME280;40708;50.364;7.550;2023-05-24T11:59:37;101065.88;;;17.19;95.46
54808;BME280;40708;50.364;7.550;2023-05-24T12:02:04;101062.81;;;16.87;100.00
54808;BME280;40708;50.364;7.550;2023-05-24T12:04:30;101061.84;;;16.93;100.00
54808;BME280;40708;50.364;7.550;2023-05-24T12:06:56;101056.03;;;17.18;100.00
54808;BME280;40708;50.364;7.550;2023-05-24T12:09:22;101052.78;;;17.50;97.58
54808;BME280;40708;50.364;7.550;2023-05-24T12:11:49;101059.16;;;17.94;90.25
54808;BME280;40708;50.364;7.550;2023-05-24T12:16:53;101060.56;;;17.15;90.99
54808;BME280;40708;50.364;7.550;2023-05-24T12:19:20;101058.34;;;16.86;96.77
54808;BME280;40708;50.364;7.550;2023-05-24T12:21:47;101070.81;;;16.89;99.37
54808;BME280;40708;50.364;7.550;2023-05-24T12:24:15;101073.47;;;16.92;100.00
54808;BME280;40708;50.364;7.550;2023-05-24T12:26:45;101068.06;;;16.95;100.00
54808;BME280;40708;50.364;7.550;2023-05-24T12:29:11;101062.25;;;16.65;100.00
54808;BME280;40708;50.364;7.550;2023-05-24T12:31:47;101060.63;;;16.51;100.00
54808;BME280;40708;50.364;7.550;2023-05-24T12:34:14;101058.97;;;16.42;100.00
54808;BME280;40708;50.364;7.550;2023-05-24T12:36:40;101058.59;;;16.70;100.00
54808;BME280;40708;50.364;7.550;2023-05-24T12:39:21;101059.56;;;16.65;100.00
54808;BME280;40708;50.364;7.550;2023-05-24T12:41:51;101065.03;;;16.58;100.00
54808;BME280;40708;50.364;7.550;2023-05-24T12:44:25;101058.28;;;16.91;100.00
54808;BME280;40708;50.364;7.550;2023-05-24T12:46:55;101058.78;;;17.15;100.00
54808;BME280;40708;50.364;7.550;2023-05-24T12:49:21;101051.13;;;16.93;100.00
54808;BME280;40708;50.364;7.550;2023-05-24T12:51:47;101052.59;;;17.12;100.00
54808;BME280;40708;50.364;7.550;2023-05-24T12:54:13;101057.88;;;17.15;100.00
54808;BME280;40708;50.364;7.550;2023-05-24T12:56:38;101045.06;;;17.32;100.00
54808;BME280;40708;50.364;7.550;2023-05-24T12:59:04;101044.59;;;17.59;91.78
54808;BME280;40708;50.364;7.550;2023-05-24T13:01:29;101055.41;;;17.01;95.28
54808;BME280;40708;50.364;7.550;2023-05-24T13:03:55;101054.88;;;16.80;100.00